createdAt,value
2018-08-23T00:00:58.381Z,21.18
2018-08-23T00:01:58.374Z,21.16
2018-08-23T00:02:58.415Z,21.15
2018-08-23T00:03:58.398Z,21.09
2018-08-23T00:04:58.348Z,21.12
2018-08-23T00:05:58.324Z,21.06
2018-08-23T00:06:58.334Z,21.12
2018-08-23T00:07:58.331Z,21.12
2018-08-23T00:08:58.310Z,21.08
2018-08-23T00:09:58.325Z,21.11
2018-08-23T00:10:58.275Z,21.03
2018-08-23T00:11:58.262Z,21.06
2018-08-23T00:12:58.268Z,20.97
2018-08-23T00:13:58.269Z,20.97
2018-08-23T00:14:58.243Z,21.01
2018-08-23T00:15:58.225Z,20.94
2018-08-23T00:16:58.204Z,20.96
2018-08-23T00:17:58.202Z,20.93
2018-08-23T00:18:58.200Z,20.96
2018-08-23T00:19:58.208Z,20.94
2018-08-23T00:20:58.163Z,20.96
2018-08-23T00:21:58.149Z,20.93
2018-08-23T00:22:58.135Z,20.85
2018-08-23T00:23:58.127Z,20.88
2018-08-23T00:24:58.143Z,20.88
2018-08-23T00:25:58.146Z,20.83
2018-08-23T00:26:58.120Z,20.85
2018-08-23T00:27:58.085Z,20.85
2018-08-23T00:28:58.071Z,20.83
2018-08-23T00:29:58.062Z,20.75
2018-08-23T00:30:58.059Z,20.93
2018-08-23T00:31:58.075Z,20.72
2018-08-23T00:32:58.036Z,20.75
2018-08-23T00:33:58.022Z,20.75
2018-08-23T00:34:58.012Z,20.76
2018-08-23T00:35:58.025Z,20.81
2018-08-23T00:36:57.985Z,20.73
2018-08-23T00:37:57.998Z,20.71
2018-08-23T00:38:57.968Z,20.71
2018-08-23T00:39:57.962Z,20.73
2018-08-23T00:40:57.974Z,20.69
2018-08-23T00:41:57.933Z,20.63
2018-08-23T00:42:57.930Z,20.71
2018-08-23T00:43:57.944Z,20.64
2018-08-23T00:44:57.898Z,20.72
2018-08-23T00:45:57.884Z,20.68
2018-08-23T00:46:57.897Z,20.57
2018-08-23T00:47:57.871Z,20.56
2018-08-23T00:48:57.861Z,20.54
2018-08-23T00:49:57.877Z,20.56
2018-08-23T00:50:57.833Z,20.56
2018-08-23T00:51:57.874Z,20.56
2018-08-23T00:52:57.818Z,20.56
2018-08-23T00:53:58.319Z,20.58
2018-08-23T00:54:57.798Z,20.48
2018-08-23T00:55:57.820Z,20.48
2018-08-23T00:56:57.771Z,20.46
2018-08-23T00:57:57.777Z,20.38
2018-08-23T00:58:57.746Z,20.41
2018-08-23T00:59:57.739Z,20.38
2018-08-23T01:00:57.725Z,20.33
2018-08-23T01:01:57.751Z,20.44
2018-08-23T01:02:57.739Z,20.41
2018-08-23T01:03:57.703Z,20.35
2018-08-23T01:04:57.692Z,20.31
2018-08-23T01:05:57.674Z,20.38
2018-08-23T01:06:57.664Z,20.31
2018-08-23T01:07:57.689Z,20.30
2018-08-23T01:08:57.659Z,20.20
2018-08-23T01:09:57.627Z,20.26
2018-08-23T01:10:57.637Z,20.19
2018-08-23T01:11:57.615Z,20.22
2018-08-23T01:12:57.607Z,20.17
2018-08-23T01:13:57.660Z,20.20
2018-08-23T01:14:57.578Z,20.20
2018-08-23T01:15:57.565Z,20.15
2018-08-23T01:16:57.563Z,20.15
2018-08-23T01:17:57.541Z,20.15
2018-08-23T01:18:57.529Z,20.05
2018-08-23T01:19:57.575Z,20.13
2018-08-23T01:20:57.507Z,20.05
2018-08-23T01:21:57.503Z,20.00
2018-08-23T01:22:57.488Z,20.07
2018-08-23T01:23:57.489Z,20.00
2018-08-23T01:24:57.466Z,20.08
2018-08-23T01:25:57.495Z,20.02
2018-08-23T01:26:57.451Z,19.89
2018-08-23T01:27:57.433Z,19.87
2018-08-23T01:28:57.427Z,19.92
2018-08-23T01:29:57.406Z,19.87
2018-08-23T01:30:57.398Z,19.90
2018-08-23T01:31:57.409Z,19.94
2018-08-23T01:32:57.410Z,19.90
2018-08-23T01:33:57.365Z,19.92
2018-08-23T01:34:57.358Z,19.90
2018-08-23T01:35:57.363Z,19.82
2018-08-23T01:36:57.332Z,19.83
2018-08-23T01:37:57.321Z,19.82
2018-08-23T01:38:57.324Z,19.79
2018-08-23T01:39:57.308Z,19.86
2018-08-23T01:40:57.326Z,19.82
2018-08-23T01:41:57.291Z,19.79
2018-08-23T01:42:57.273Z,19.79
2018-08-23T01:43:57.272Z,19.78
2018-08-23T01:44:57.256Z,19.75
2018-08-23T01:45:57.250Z,19.75
2018-08-23T01:46:57.309Z,19.75
2018-08-23T01:47:57.217Z,19.68
2018-08-23T01:48:57.241Z,19.68
2018-08-23T01:49:57.188Z,19.64
2018-08-23T01:50:57.185Z,19.58
2018-08-23T01:51:57.233Z,19.62
2018-08-23T01:52:57.181Z,19.57
2018-08-23T01:53:57.167Z,19.53
2018-08-23T01:54:57.145Z,19.57
2018-08-23T01:55:57.129Z,19.52
2018-08-23T01:56:57.136Z,19.49
2018-08-23T01:57:57.104Z,19.47
2018-08-23T01:58:57.166Z,19.50
2018-08-23T01:59:57.089Z,19.43
2018-08-23T02:00:57.073Z,19.52
2018-08-23T02:01:57.061Z,19.49
2018-08-23T02:02:57.050Z,19.46
2018-08-23T02:03:57.040Z,19.49
2018-08-23T02:04:57.068Z,19.49
2018-08-23T02:05:57.053Z,19.47
2018-08-23T02:06:57.003Z,19.39
2018-08-23T02:07:57.000Z,19.50
2018-08-23T02:08:56.983Z,19.34
2018-08-23T02:09:56.974Z,19.43
2018-08-23T02:10:56.987Z,19.40
2018-08-23T02:11:56.973Z,19.38
2018-08-23T02:12:56.989Z,19.43
2018-08-23T02:13:56.930Z,19.43
2018-08-23T02:14:56.919Z,19.40
2018-08-23T02:15:56.908Z,19.32
2018-08-23T02:16:56.893Z,19.31
2018-08-23T02:17:56.925Z,19.40
2018-08-23T02:18:56.898Z,19.46
2018-08-23T02:19:56.868Z,19.35
2018-08-23T02:20:56.849Z,19.40
2018-08-23T02:21:56.845Z,19.35
2018-08-23T02:22:56.826Z,19.45
2018-08-23T02:23:56.838Z,19.32
2018-08-23T02:24:56.845Z,19.32
2018-08-23T02:25:56.796Z,19.30
2018-08-23T02:26:56.785Z,19.28
2018-08-23T02:27:56.777Z,19.30
2018-08-23T02:28:56.761Z,19.30
2018-08-23T02:29:56.804Z,19.32
2018-08-23T02:30:56.745Z,19.32
2018-08-23T02:31:56.729Z,19.27
2018-08-23T02:32:56.720Z,19.28
2018-08-23T02:33:56.711Z,19.25
2018-08-23T02:34:56.723Z,19.25
2018-08-23T02:35:56.716Z,19.20
2018-08-23T02:36:56.677Z,19.16
2018-08-23T02:37:56.667Z,19.20
2018-08-23T02:38:56.648Z,19.21
2018-08-23T02:39:56.640Z,19.16
2018-08-23T02:40:56.648Z,19.16
2018-08-23T02:41:56.663Z,19.10
2018-08-23T02:42:56.604Z,19.07
2018-08-23T02:43:56.602Z,19.13
2018-08-23T02:44:56.618Z,19.07
2018-08-23T02:45:56.574Z,19.07
2018-08-23T02:46:56.564Z,19.05
2018-08-23T02:47:56.587Z,19.06
2018-08-23T02:48:56.539Z,19.07
2018-08-23T02:49:56.526Z,19.06
2018-08-23T02:50:56.535Z,18.99
2018-08-23T02:51:56.505Z,18.97
2018-08-23T02:52:56.496Z,18.99
2018-08-23T02:53:56.486Z,18.99
2018-08-23T02:54:56.492Z,19.01
2018-08-23T02:55:56.488Z,18.94
2018-08-23T02:56:56.446Z,18.93
2018-08-23T02:57:56.438Z,18.97
2018-08-23T02:58:56.425Z,18.97
2018-08-23T02:59:56.414Z,18.90
2018-08-23T03:00:56.478Z,18.90
2018-08-23T03:01:56.394Z,18.91
2018-08-23T03:02:56.381Z,18.83
2018-08-23T03:03:56.369Z,18.83
2018-08-23T03:04:56.359Z,18.84
2018-08-23T03:05:56.350Z,18.84
2018-08-23T03:06:56.375Z,18.82
2018-08-23T03:07:56.327Z,18.69
2018-08-23T03:08:56.312Z,18.79
2018-08-23T03:09:56.304Z,18.71
2018-08-23T03:10:56.290Z,18.74
2018-08-23T03:11:56.313Z,18.71
2018-08-23T03:12:56.267Z,18.74
2018-08-23T03:13:56.318Z,18.69
2018-08-23T03:14:56.249Z,18.72
2018-08-23T03:15:56.244Z,18.74
2018-08-23T03:16:56.226Z,18.71
2018-08-23T03:17:56.236Z,18.71
2018-08-23T03:18:56.219Z,18.68
2018-08-23T03:19:56.206Z,18.59
2018-08-23T03:20:56.180Z,18.68
2018-08-23T03:21:56.173Z,18.71
2018-08-23T03:22:56.194Z,18.56
2018-08-23T03:23:56.150Z,18.59
2018-08-23T03:24:56.152Z,18.57
2018-08-23T03:25:56.124Z,18.60
2018-08-23T03:26:56.118Z,18.57
2018-08-23T03:27:56.126Z,18.46
2018-08-23T03:28:56.096Z,18.59
2018-08-23T03:29:56.083Z,18.50
2018-08-23T03:30:56.101Z,18.49
2018-08-23T03:31:56.117Z,18.49
2018-08-23T03:32:56.083Z,18.46
2018-08-23T03:33:56.038Z,18.51
2018-08-23T03:34:56.047Z,18.50
2018-08-23T03:35:56.016Z,18.51
2018-08-23T03:36:56.013Z,18.47
2018-08-23T03:37:56.008Z,18.44
2018-08-23T03:38:55.999Z,18.42
2018-08-23T03:39:55.977Z,18.39
2018-08-23T03:40:55.962Z,18.49
2018-08-23T03:41:55.954Z,18.51
2018-08-23T03:42:55.941Z,18.39
2018-08-23T03:43:55.993Z,18.39
2018-08-23T03:44:55.922Z,18.36
2018-08-23T03:45:55.912Z,18.39
2018-08-23T03:46:55.901Z,18.46
2018-08-23T03:47:55.894Z,18.42
2018-08-23T03:48:55.878Z,18.32
2018-08-23T03:49:55.922Z,18.35
2018-08-23T03:50:55.855Z,18.28
2018-08-23T03:51:55.847Z,18.32
2018-08-23T03:52:55.839Z,18.29
2018-08-23T03:53:55.850Z,18.25
2018-08-23T03:54:55.842Z,18.35
2018-08-23T03:55:55.810Z,18.29
2018-08-23T03:56:55.799Z,18.29
2018-08-23T03:57:55.779Z,18.26
2018-08-23T03:58:55.770Z,18.26
2018-08-23T03:59:55.785Z,18.20
2018-08-23T04:00:55.767Z,18.20
2018-08-23T04:01:55.759Z,18.29
2018-08-23T04:02:55.733Z,18.20
2018-08-23T04:03:55.717Z,18.23
2018-08-23T04:04:55.708Z,18.17
2018-08-23T04:05:55.729Z,18.11
2018-08-23T04:06:55.704Z,18.09
2018-08-23T04:07:55.698Z,18.16
2018-08-23T04:08:55.661Z,18.05
2018-08-23T04:09:55.652Z,18.04
2018-08-23T04:10:55.665Z,17.99
2018-08-23T04:11:55.634Z,18.05
2018-08-23T04:12:55.622Z,17.99
2018-08-23T04:13:55.665Z,17.96
2018-08-23T04:14:55.598Z,17.98
2018-08-23T04:15:55.613Z,18.05
2018-08-23T04:16:55.577Z,18.04
2018-08-23T04:17:55.577Z,17.89
2018-08-23T04:18:55.557Z,17.98
2018-08-23T04:19:55.586Z,17.92
2018-08-23T04:20:55.536Z,17.89
2018-08-23T04:21:55.555Z,17.83
2018-08-23T04:22:55.587Z,17.79
2018-08-23T04:23:55.508Z,17.80
2018-08-23T04:24:55.492Z,17.80
2018-08-23T04:25:55.495Z,17.81
2018-08-23T04:26:55.470Z,17.76
2018-08-23T04:27:55.482Z,17.81
2018-08-23T04:28:55.445Z,17.76
2018-08-23T04:29:55.437Z,17.77
2018-08-23T04:30:55.421Z,17.77
2018-08-23T04:31:55.472Z,17.74
2018-08-23T04:32:55.421Z,17.79
2018-08-23T04:33:55.391Z,17.71
2018-08-23T04:34:55.388Z,17.79
2018-08-23T04:35:55.413Z,17.79
2018-08-23T04:36:55.362Z,17.66
2018-08-23T04:37:55.362Z,17.63
2018-08-23T04:38:55.339Z,17.68
2018-08-23T04:39:55.327Z,17.70
2018-08-23T04:40:55.329Z,17.71
2018-08-23T04:41:55.330Z,17.71
2018-08-23T04:42:55.381Z,17.66
2018-08-23T04:43:55.288Z,17.68
2018-08-23T04:44:55.282Z,17.70
2018-08-23T05:01:42.528Z,17.65
2018-08-23T05:02:42.062Z,17.62
2018-08-23T05:03:42.137Z,17.58
2018-08-23T05:04:42.041Z,17.60
2018-08-23T05:05:42.120Z,17.57
2018-08-23T05:06:42.000Z,17.58
2018-08-23T05:07:43.523Z,17.63
2018-08-23T05:08:41.984Z,17.62
2018-08-23T05:09:42.599Z,17.60
2018-08-23T05:10:41.946Z,17.63
2018-08-23T05:11:41.935Z,17.62
2018-08-23T05:12:41.998Z,17.60
2018-08-23T05:13:41.913Z,17.63
2018-08-23T05:14:41.899Z,17.62
2018-08-23T05:15:41.899Z,17.63
2018-08-23T05:16:41.920Z,17.62
2018-08-23T05:17:41.871Z,17.57
2018-08-23T05:18:41.879Z,17.66
2018-08-23T05:19:41.846Z,17.63
2018-08-23T05:20:41.844Z,17.60
2018-08-23T05:21:41.836Z,17.62
2018-08-23T05:22:41.857Z,17.57
2018-08-23T05:23:41.801Z,17.60
2018-08-23T05:24:41.805Z,17.77
2018-08-23T05:25:41.779Z,17.73
2018-08-23T05:26:41.787Z,17.66
2018-08-23T05:27:41.757Z,17.66
2018-08-23T05:28:41.745Z,17.68
2018-08-23T05:29:41.763Z,17.63
2018-08-23T05:30:41.765Z,17.71
2018-08-23T05:31:41.725Z,17.70
2018-08-23T05:32:41.705Z,17.79
2018-08-23T05:33:41.685Z,17.73
2018-08-23T05:34:41.694Z,17.76
2018-08-23T05:35:41.670Z,17.73
2018-08-23T05:36:41.716Z,17.81
2018-08-23T05:37:41.639Z,17.80
2018-08-23T05:38:41.636Z,17.80
2018-08-23T05:39:41.625Z,17.79
2018-08-23T05:40:41.623Z,17.79
2018-08-23T05:41:41.598Z,17.84
2018-08-23T05:42:41.609Z,17.96
2018-08-23T05:43:41.629Z,17.91
2018-08-23T05:44:41.593Z,18.02
2018-08-23T05:45:41.554Z,17.98
2018-08-23T05:46:41.546Z,18.05
2018-08-23T05:47:41.585Z,18.09
2018-08-23T05:48:41.531Z,18.07
2018-08-23T05:49:41.507Z,18.09
2018-08-23T05:50:41.515Z,18.14
2018-08-23T05:51:41.491Z,18.19
2018-08-23T05:52:41.501Z,18.21
2018-08-23T05:53:41.463Z,18.25
2018-08-23T05:54:41.463Z,18.25
2018-08-23T05:55:41.459Z,18.34
2018-08-23T05:56:41.460Z,18.31
2018-08-23T05:57:41.423Z,18.29
2018-08-23T05:58:41.412Z,18.29
2018-08-23T05:59:41.399Z,18.39
2018-08-23T06:00:41.396Z,18.39
2018-08-23T06:01:41.399Z,18.39
2018-08-23T06:02:41.371Z,18.51
2018-08-23T06:03:41.359Z,18.47
2018-08-23T06:04:41.346Z,18.47
2018-08-23T06:05:41.342Z,18.54
2018-08-23T06:06:41.361Z,18.60
2018-08-23T06:07:41.317Z,18.59
2018-08-23T06:08:41.307Z,18.59
2018-08-23T06:09:41.297Z,18.68
2018-08-23T06:10:41.284Z,18.74
2018-08-23T06:11:41.294Z,18.78
2018-08-23T06:12:41.312Z,18.72
2018-08-23T06:13:41.242Z,18.79
2018-08-23T06:14:41.237Z,18.86
2018-08-23T06:15:41.236Z,18.94
2018-08-23T06:16:41.234Z,18.97
2018-08-23T06:17:41.232Z,18.97
2018-08-23T06:18:41.201Z,18.90
2018-08-23T06:19:41.225Z,18.99
2018-08-23T06:20:41.170Z,18.99
2018-08-23T06:21:41.177Z,19.09
2018-08-23T06:22:41.143Z,19.15
2018-08-23T06:23:41.163Z,19.10
2018-08-23T06:24:41.134Z,19.23
2018-08-23T06:25:41.138Z,19.17
2018-08-23T06:26:41.104Z,19.25
2018-08-23T06:27:41.095Z,19.24
2018-08-23T06:28:41.110Z,19.28
2018-08-23T06:29:41.071Z,19.31
2018-08-23T06:30:41.092Z,19.39
2018-08-23T06:31:41.049Z,19.40
2018-08-23T06:32:41.081Z,19.38
2018-08-23T06:33:41.113Z,19.40
2018-08-23T06:34:41.035Z,19.42
2018-08-23T06:35:41.094Z,19.49
2018-08-23T06:36:40.993Z,19.46
2018-08-23T06:37:40.997Z,19.57
2018-08-23T06:38:41.011Z,19.61
2018-08-23T06:39:41.000Z,19.62
2018-08-23T06:40:40.948Z,19.72
2018-08-23T06:41:40.938Z,19.72
2018-08-23T06:42:40.924Z,19.75
2018-08-23T06:43:40.915Z,19.78
2018-08-23T06:44:41.004Z,19.79
2018-08-23T06:45:40.981Z,19.85
2018-08-23T06:46:40.882Z,19.79
2018-08-23T06:47:40.904Z,19.82
2018-08-23T06:48:40.876Z,19.87
2018-08-23T06:49:40.849Z,19.89
2018-08-23T06:50:40.866Z,19.90
2018-08-23T06:51:40.825Z,19.94
2018-08-23T06:52:40.814Z,20.02
2018-08-23T06:53:40.828Z,20.01
2018-08-23T06:54:40.806Z,20.02
2018-08-23T06:55:40.783Z,20.05
2018-08-23T06:56:40.903Z,20.01
2018-08-23T06:57:40.792Z,20.13
2018-08-23T06:58:40.780Z,20.15
2018-08-23T06:59:40.761Z,20.19
2018-08-23T07:00:40.730Z,20.17
2018-08-23T07:01:40.717Z,20.37
2018-08-23T07:02:40.738Z,20.40
2018-08-23T07:03:40.693Z,20.41
2018-08-23T07:04:40.712Z,20.38
2018-08-23T07:05:40.698Z,20.46
2018-08-23T07:06:40.671Z,20.50
2018-08-23T07:07:40.672Z,20.58
2018-08-23T07:08:40.659Z,20.56
2018-08-23T07:09:40.632Z,20.69
2018-08-23T07:10:40.619Z,20.61
2018-08-23T07:11:40.664Z,20.69
2018-08-23T07:12:40.594Z,20.78
2018-08-23T07:13:40.630Z,20.79
2018-08-23T07:14:40.602Z,20.76
2018-08-23T07:15:40.560Z,20.83
2018-08-23T07:16:40.558Z,20.83
2018-08-23T07:17:40.714Z,20.88
2018-08-23T07:18:40.534Z,20.93
2018-08-23T07:19:40.589Z,20.98
2018-08-23T07:20:40.514Z,21.05
2018-08-23T07:21:40.499Z,21.06
2018-08-23T07:22:40.496Z,21.06
2018-08-23T07:23:40.478Z,21.13
2018-08-23T07:24:40.539Z,21.22
2018-08-23T07:25:40.750Z,21.26
2018-08-23T07:26:40.490Z,21.30
2018-08-23T07:27:40.442Z,21.43
2018-08-23T07:28:40.440Z,21.42
2018-08-23T07:29:40.462Z,21.52
2018-08-23T07:30:40.412Z,21.52
2018-08-23T07:31:40.389Z,21.46
2018-08-23T07:32:40.457Z,21.55
2018-08-23T07:33:40.370Z,21.66
2018-08-23T07:34:40.366Z,21.71
2018-08-23T07:35:40.364Z,21.70
2018-08-23T07:36:40.360Z,21.70
2018-08-23T07:37:40.380Z,21.73
2018-08-23T07:38:40.311Z,21.85
2018-08-23T07:39:40.365Z,21.79
2018-08-23T07:40:40.328Z,21.89
2018-08-23T07:41:40.287Z,21.94
2018-08-23T07:42:40.276Z,21.94
2018-08-23T07:43:40.257Z,21.90
2018-08-23T07:44:40.249Z,21.93
2018-08-23T07:45:40.388Z,21.96
2018-08-23T07:46:40.429Z,22.06
2018-08-23T07:47:40.213Z,22.11
2018-08-23T07:48:40.363Z,22.11
2018-08-23T07:49:40.230Z,22.23
2018-08-23T07:50:40.207Z,22.29
2018-08-23T07:51:40.199Z,22.29
2018-08-23T07:52:40.187Z,22.36
2018-08-23T07:53:40.157Z,22.46
2018-08-23T07:54:40.158Z,22.46
2018-08-23T07:55:40.127Z,22.51
2018-08-23T07:56:40.122Z,22.59
2018-08-23T07:57:40.125Z,22.67
2018-08-23T07:58:40.102Z,22.75
2018-08-23T07:59:40.110Z,22.78
2018-08-23T08:00:40.077Z,22.79
2018-08-23T08:01:40.067Z,22.69
2018-08-23T08:02:40.103Z,22.64
2018-08-23T08:03:40.047Z,22.67
2018-08-23T08:04:40.058Z,22.75
2018-08-23T08:05:40.032Z,22.74
2018-08-23T08:06:40.013Z,22.74
2018-08-23T08:07:40.053Z,22.72
2018-08-23T08:08:40.057Z,22.72
2018-08-23T08:09:39.977Z,22.88
2018-08-23T08:10:40.018Z,22.88
2018-08-23T08:11:39.956Z,23.03
2018-08-23T08:12:39.952Z,23.07
2018-08-23T08:13:39.945Z,23.06
2018-08-23T08:14:40.012Z,23.14
2018-08-23T08:15:39.924Z,23.29
2018-08-23T08:16:39.910Z,23.44
2018-08-23T08:17:39.989Z,23.52
2018-08-23T08:18:39.883Z,23.53
2018-08-23T08:19:39.880Z,23.62
2018-08-23T08:20:39.861Z,23.75
2018-08-23T08:21:39.882Z,23.81
2018-08-23T08:22:39.887Z,23.99
2018-08-23T08:23:39.851Z,24.05
2018-08-23T08:24:39.826Z,24.05
2018-08-23T08:25:39.845Z,24.16
2018-08-23T08:26:39.809Z,24.16
2018-08-23T08:27:39.785Z,24.23
2018-08-23T08:28:39.807Z,24.23
2018-08-23T08:29:39.769Z,24.24
2018-08-23T08:30:39.754Z,24.31
2018-08-23T08:31:39.762Z,24.34
2018-08-23T08:32:39.734Z,24.30
2018-08-23T08:33:39.744Z,24.24
2018-08-23T08:34:39.747Z,24.16
2018-08-23T08:35:39.706Z,24.16
2018-08-23T08:36:39.693Z,24.14
2018-08-23T08:37:39.734Z,24.16
2018-08-23T08:38:39.674Z,24.37
2018-08-23T08:39:39.769Z,24.36
2018-08-23T08:40:39.678Z,24.63
2018-08-23T08:41:39.643Z,24.64
2018-08-23T08:42:39.635Z,24.60
2018-08-23T08:43:39.624Z,24.53
2018-08-23T08:44:39.612Z,24.61
2018-08-23T08:45:39.651Z,24.74
2018-08-23T08:46:39.598Z,24.80
2018-08-23T08:47:39.588Z,24.86
2018-08-23T08:48:39.579Z,24.92
2018-08-23T08:49:39.563Z,25.01
2018-08-23T08:50:39.600Z,25.08
2018-08-23T08:51:39.548Z,25.09
2018-08-23T08:52:39.550Z,25.16
2018-08-23T08:53:39.521Z,25.34
2018-08-23T08:54:39.524Z,25.36
2018-08-23T08:55:39.512Z,25.34
2018-08-23T08:56:39.814Z,25.57
2018-08-23T08:57:39.574Z,25.71
2018-08-23T08:58:39.494Z,25.82
2018-08-23T08:59:39.459Z,25.93
2018-08-23T09:00:39.472Z,25.97
2018-08-23T09:01:39.472Z,25.97
2018-08-23T09:02:39.722Z,25.96
2018-08-23T09:03:39.489Z,25.81
2018-08-23T09:04:39.413Z,25.97
2018-08-23T09:05:39.455Z,26.11
2018-08-23T09:06:39.408Z,26.13
2018-08-23T09:07:39.404Z,26.01
2018-08-23T09:08:39.370Z,26.08
2018-08-23T09:09:39.444Z,26.29
2018-08-23T09:10:39.360Z,26.28
2018-08-23T09:11:39.384Z,26.13
2018-08-23T09:12:39.461Z,25.89
2018-08-23T09:13:39.511Z,25.82
2018-08-23T09:14:39.324Z,25.85
2018-08-23T09:15:39.351Z,25.90
2018-08-23T09:16:39.407Z,25.86
2018-08-23T09:17:39.297Z,25.90
2018-08-23T09:18:39.289Z,25.96
2018-08-23T09:19:39.285Z,26.23
2018-08-23T09:20:39.418Z,26.31
2018-08-23T09:21:39.290Z,26.13
2018-08-23T09:22:39.306Z,25.91
2018-08-23T09:23:39.392Z,25.82
2018-08-23T09:24:39.272Z,25.85
2018-08-23T09:25:39.268Z,25.71
2018-08-23T09:26:39.270Z,25.82
2018-08-23T09:27:39.767Z,25.71
2018-08-23T09:28:39.328Z,25.71
2018-08-23T09:29:39.213Z,25.72
2018-08-23T09:30:39.237Z,25.83
2018-08-23T09:31:39.158Z,25.98
2018-08-23T09:32:39.191Z,26.04
2018-08-23T09:33:39.140Z,25.81
2018-08-23T09:34:39.159Z,25.89
2018-08-23T09:35:39.169Z,25.81
2018-08-23T09:36:39.123Z,25.82
2018-08-23T09:37:39.262Z,25.79
2018-08-23T09:38:39.110Z,25.81
2018-08-23T09:39:39.138Z,25.90
2018-08-23T09:40:39.077Z,25.97
2018-08-23T09:41:39.069Z,25.97
2018-08-23T09:42:39.058Z,26.00
2018-08-23T09:43:39.107Z,25.96
2018-08-23T09:44:39.109Z,25.85
2018-08-23T09:45:39.018Z,25.96
2018-08-23T09:46:39.051Z,25.98
2018-08-23T09:47:39.005Z,26.13
2018-08-23T09:48:39.717Z,26.32
2018-08-23T09:49:39.112Z,26.44
2018-08-23T09:50:39.017Z,26.34
2018-08-23T09:51:38.967Z,26.35
2018-08-23T09:52:39.036Z,26.34
2018-08-23T09:53:38.948Z,26.34
2018-08-23T09:54:38.936Z,26.49
2018-08-23T09:55:38.952Z,26.53
2018-08-23T09:56:38.961Z,26.53
2018-08-23T09:57:38.955Z,26.34
2018-08-23T09:58:38.899Z,26.34
2018-08-23T09:59:38.954Z,26.44
2018-08-23T10:00:38.946Z,26.57
2018-08-23T10:01:38.886Z,26.66
2018-08-23T10:02:38.876Z,26.75
2018-08-23T10:03:38.924Z,26.76
2018-08-23T10:04:38.867Z,26.76
2018-08-23T10:05:40.833Z,26.75
2018-08-23T10:06:38.827Z,26.90
2018-08-23T10:07:38.866Z,27.02
2018-08-23T10:08:38.820Z,27.03
2018-08-23T10:09:38.807Z,27.27
2018-08-23T10:10:39.081Z,27.43
2018-08-23T10:11:38.867Z,27.58
2018-08-23T10:12:38.769Z,27.45
2018-08-23T10:13:38.773Z,27.53
2018-08-23T10:14:38.921Z,27.53
2018-08-23T10:15:38.735Z,27.52
2018-08-23T10:16:38.786Z,27.62
2018-08-23T10:17:38.721Z,27.65
2018-08-23T10:18:38.728Z,27.80
2018-08-23T10:19:38.707Z,27.80
2018-08-23T10:20:38.803Z,27.68
2018-08-23T10:21:38.705Z,27.74
2018-08-23T10:22:38.672Z,27.59
2018-08-23T10:23:38.678Z,27.59
2018-08-23T10:24:38.659Z,27.61
2018-08-23T10:25:38.652Z,27.55
2018-08-23T10:26:38.723Z,27.63
2018-08-23T10:27:38.652Z,27.63
2018-08-23T10:28:38.647Z,27.81
2018-08-23T10:29:38.611Z,27.93
2018-08-23T10:30:38.600Z,28.09
2018-08-23T10:31:38.636Z,28.21
2018-08-23T10:32:38.625Z,28.38
2018-08-23T10:33:38.593Z,28.39
2018-08-23T10:34:38.635Z,28.11
2018-08-23T10:35:38.552Z,28.09
2018-08-23T10:36:38.540Z,28.13
2018-08-23T10:37:38.538Z,28.28
2018-08-23T10:38:38.525Z,28.36
2018-08-23T10:39:38.607Z,28.28
2018-08-23T10:40:38.535Z,28.14
2018-08-23T10:41:38.497Z,27.80
2018-08-23T10:42:38.486Z,27.76
2018-08-23T10:43:38.660Z,27.76
2018-08-23T10:44:38.543Z,27.90
2018-08-23T10:45:38.493Z,27.98
2018-08-23T10:46:38.488Z,27.84
2018-08-23T10:47:38.445Z,27.96
2018-08-23T10:48:38.534Z,27.99
2018-08-23T10:49:38.727Z,27.95
2018-08-23T10:50:38.564Z,28.09
2018-08-23T10:51:38.428Z,28.24
2018-08-23T10:52:38.432Z,28.38
2018-08-23T10:53:38.546Z,28.40
2018-08-23T10:54:38.564Z,28.55
2018-08-23T10:55:38.372Z,28.57
2018-08-23T10:56:38.370Z,28.36
2018-08-23T10:57:38.411Z,28.36
2018-08-23T10:58:38.351Z,28.39
2018-08-23T10:59:38.365Z,28.40
2018-08-23T11:00:38.331Z,28.54
2018-08-23T11:01:38.446Z,28.40
2018-08-23T11:02:38.309Z,28.39
2018-08-23T11:03:38.304Z,28.23
2018-08-23T11:04:38.322Z,27.98
2018-08-23T11:05:38.284Z,27.88
2018-08-23T11:06:38.326Z,27.88
2018-08-23T11:07:38.264Z,28.03
2018-08-23T11:08:38.253Z,27.90
2018-08-23T11:09:38.300Z,28.01
2018-08-23T11:10:38.264Z,28.01
2018-08-23T11:11:38.268Z,28.27
2018-08-23T11:12:38.266Z,28.32
2018-08-23T11:13:38.202Z,28.43
2018-08-23T11:14:38.218Z,28.52
2018-08-23T11:15:38.182Z,28.42
2018-08-23T11:16:38.244Z,28.38
2018-08-23T11:17:38.165Z,28.21
2018-08-23T11:18:38.154Z,28.25
2018-08-23T11:19:38.147Z,28.52
2018-08-23T11:20:38.135Z,28.73
2018-08-23T11:21:38.125Z,28.89
2018-08-23T11:22:38.150Z,28.85
2018-08-23T11:23:38.110Z,28.94
2018-08-23T11:24:38.108Z,29.11
2018-08-23T11:25:38.095Z,29.05
2018-08-23T11:26:38.141Z,29.05
2018-08-23T11:27:38.111Z,29.18
2018-08-23T11:28:38.067Z,29.17
2018-08-23T11:29:38.091Z,29.03
2018-08-23T11:30:38.044Z,29.17
2018-08-23T11:31:38.100Z,28.98
2018-08-23T11:32:38.036Z,28.89
2018-08-23T11:33:38.038Z,28.77
2018-08-23T11:34:38.020Z,28.69
2018-08-23T11:35:38.007Z,28.88
2018-08-23T11:36:38.090Z,28.76
2018-08-23T11:37:37.981Z,28.73
2018-08-23T11:38:37.990Z,28.80
2018-08-23T11:39:37.984Z,28.77
2018-08-23T11:40:37.952Z,28.74
2018-08-23T11:41:37.952Z,28.72
2018-08-23T11:42:37.960Z,28.73
2018-08-23T11:43:37.961Z,28.73
2018-08-23T11:44:37.918Z,28.74
2018-08-23T11:45:38.348Z,29.05
2018-08-23T11:46:38.811Z,29.14
2018-08-23T11:47:38.125Z,29.29
2018-08-23T11:48:37.937Z,29.29
2018-08-23T11:49:37.910Z,29.36
2018-08-23T11:50:38.013Z,29.47
2018-08-23T11:51:38.106Z,29.51
2018-08-23T11:54:05.782Z,29.41
2018-08-23T11:55:07.789Z,29.26
2018-08-23T11:58:27.529Z,29.29
2018-08-23T11:59:29.030Z,29.30
2018-08-23T12:02:04.081Z,29.49
2018-08-23T12:03:03.921Z,29.54
2018-08-23T12:06:03.652Z,29.84
2018-08-23T12:07:02.865Z,29.84
2018-08-23T12:08:02.824Z,29.85
2018-08-23T12:09:02.593Z,29.92
2018-08-23T12:10:04.558Z,29.88
2018-08-23T12:11:02.481Z,29.60
2018-08-23T12:12:03.620Z,29.32
2018-08-23T12:13:02.473Z,29.23
2018-08-23T12:14:02.590Z,29.26
2018-08-23T12:15:02.475Z,29.36
2018-08-23T12:16:02.573Z,29.33
2018-08-23T12:17:02.486Z,29.62
2018-08-23T12:18:02.507Z,29.52
2018-08-23T12:19:02.393Z,29.47
2018-08-23T12:20:02.353Z,29.23
2018-08-23T12:21:02.570Z,29.08
2018-08-23T12:22:02.318Z,29.02
2018-08-23T12:23:02.670Z,28.76
2018-08-23T12:24:02.335Z,28.60
2018-08-23T12:25:02.315Z,28.50
2018-08-23T12:26:02.362Z,28.57
2018-08-23T12:27:02.411Z,28.69
2018-08-23T12:28:02.288Z,28.65
2018-08-23T12:29:02.389Z,28.60
2018-08-23T12:30:02.359Z,28.76
2018-08-23T12:31:02.380Z,28.88
2018-08-23T12:32:02.246Z,29.05
2018-08-23T12:33:02.349Z,29.27
2018-08-23T12:34:02.468Z,29.30
2018-08-23T12:35:02.260Z,29.47
2018-08-23T12:36:02.201Z,29.47
2018-08-23T12:37:02.178Z,29.60
2018-08-23T12:38:02.211Z,29.64
2018-08-23T12:39:02.346Z,29.76
2018-08-23T12:41:14.458Z,30.06
2018-08-23T12:42:14.534Z,29.99
2018-08-23T12:43:14.129Z,29.97
2018-08-23T12:44:14.069Z,29.89
2018-08-23T12:45:14.297Z,29.95
2018-08-23T12:46:14.051Z,29.82
2018-08-23T12:47:14.023Z,29.76
2018-08-23T12:48:14.121Z,29.60
2018-08-23T12:49:13.974Z,29.64
2018-08-23T12:50:18.802Z,29.52
2018-08-23T12:52:46.147Z,29.58
2018-08-23T12:53:46.154Z,29.63
2018-08-23T12:55:03.931Z,29.88
2018-08-23T12:55:47.360Z,30.04
2018-08-23T12:57:56.806Z,29.91
2018-08-23T12:58:56.687Z,29.85
2018-08-23T12:59:56.651Z,30.10
2018-08-23T13:00:56.610Z,29.97
2018-08-23T13:01:56.895Z,29.78
2018-08-23T13:02:56.598Z,29.66
2018-08-23T13:03:56.534Z,29.76
2018-08-23T13:04:56.453Z,29.84
2018-08-23T13:06:04.531Z,30.13
2018-08-23T13:10:15.442Z,30.29
2018-08-23T13:11:05.309Z,30.42
2018-08-23T13:12:09.828Z,30.16
2018-08-23T13:13:05.268Z,30.01
2018-08-23T13:14:15.836Z,29.74
2018-08-23T13:15:05.295Z,29.82
2018-08-23T13:16:05.270Z,29.99
2018-08-23T13:17:06.805Z,30.19
2018-08-23T13:36:09.615Z,30.53
2018-08-23T13:37:09.629Z,30.48
2018-08-23T13:38:09.497Z,30.32
2018-08-23T13:39:09.430Z,30.28
2018-08-23T13:40:09.500Z,30.29
2018-08-23T13:41:09.494Z,30.28